Empire State — WDE4431 — position and weather

sailwx.info

Track history (hours):
 
Tides and Currents Weather Stations Pressure Air Temp Water Temp Dewpoint Dewpoint Depression Visibility Wind Speed Wind Dir Waves Ship Positions

Empire State

Owner: Crowley Petroleum Services, Jacksonville, FL. More information available from US FCC via Universal Licensing System and Coast Guard Vessel Documentation Center.

Last reported at 2016-Feb-09 17:34 UTC. Time now 2016-Feb-09 18:00 UTC.
Position N 37°53' W 124°02'.

Length 183 m; draft 10.5 m.

Type: Military. MMSI: 367353080.

Date/timePositionNaut miles runAvg speedWind from/ knotsBaromVisibWave heightAir tempDewpointWater temp
2016-Feb-09 17:34N 37°53' W 124°02'1414.4
2016-Feb-09 16:33N 37°43' W 123°49'1414.3
2016-Feb-09 15:33N 37°33' W 123°35'1414.3
2016-Feb-09 14:34N 37°24' W 123°22'1313.1
2016-Feb-09 13:33N 37°32' W 123°08'1110.8
2016-Feb-09 12:33N 37°38' W 122°57'1010.3
2016-Feb-09 11:33N 37°43' W 122°46'1110.9
2016-Feb-09 10:34N 37°48' W 122°33'9 8.8
2016-Feb-09 09:33N 37°54' W 122°27'8 8.3
2016-Feb-09 08:33N 38°02' W 122°22'6 6.1
2016-Feb-09 07:33N 38°04' W 122°15'0 0.1
2016-Feb-09 06:30N 38°04' W 122°15'0 0.0
2016-Feb-09 05:30N 38°04' W 122°15'0 0.0
2016-Feb-09 04:30N 38°04' W 122°15'0 0.0
2016-Feb-09 03:30N 38°04' W 122°15'0 0.0
2016-Feb-09 02:30N 38°04' W 122°15'0 0.0
2016-Feb-08 18:24N 38°04' W 122°15'0 0.0
2016-Feb-08 17:30N 38°04' W 122°15'0 0.0
2016-Feb-08 16:30N 38°04' W 122°15'0 0.0
2016-Feb-08 15:30N 38°04' W 122°15'0 0.0
2016-Feb-08 14:30N 38°04' W 122°15'0 0.0
2016-Feb-08 13:30N 38°04' W 122°15'0 0.0
2016-Feb-08 12:30N 38°04' W 122°15'0 0.0
2016-Feb-08 11:30N 38°04' W 122°15'0 0.0
2016-Feb-08 10:24N 38°04' W 122°15'0 0.0
2016-Feb-08 09:24N 38°04' W 122°15'0 0.0
2016-Feb-08 08:18N 38°04' W 122°15'0 0.0
2016-Feb-08 07:18N 38°04' W 122°15'0 0.0
2016-Feb-08 06:30N 38°04' W 122°15'0 0.0
2016-Feb-08 05:30N 38°04' W 122°15'0 0.0
2016-Feb-08 04:18N 38°04' W 122°15'0 0.0
2016-Feb-08 03:24N 38°04' W 122°15'0 0.0
2016-Feb-07 20:30N 38°04' W 122°15'0 0.0
2016-Feb-07 19:30N 38°04' W 122°15'0 0.0
2016-Feb-07 18:30N 38°04' W 122°15'0 0.0
2016-Feb-07 17:30N 38°04' W 122°15'0 0.0
2016-Feb-07 16:30N 38°04' W 122°15'0 0.0
2016-Feb-07 15:30N 38°04' W 122°15'0 0.0
2016-Feb-07 14:30N 38°04' W 122°15'0 0.0
2016-Feb-07 13:24N 38°04' W 122°15'0 0.0
2016-Feb-07 12:30N 38°04' W 122°15'0 0.0
2016-Feb-07 11:30N 38°04' W 122°15'0 0.0
2016-Feb-07 09:24N 38°04' W 122°15'0 0.0
2016-Feb-06 11:30N 38°04' W 122°15'4 4.4
2016-Feb-06 10:33N 38°03' W 122°20'1111.3
2016-Feb-06 09:33N 37°53' W 122°25'8 7.6
2016-Feb-06 08:33N 37°47' W 122°32'1111.4
2016-Feb-06 07:33N 37°42' W 122°45'1110.6
2016-Feb-06 06:33N 37°36' W 122°56'1010.4
2016-Feb-06 05:33N 37°29' W 123°06'10 9.9
2016-Feb-06 04:33N 37°23' W 123°15'1010.0
2016-Feb-06 03:33N 37°16' W 123°25'1010.2
2016-Feb-06 02:33N 37°10' W 123°35'6 6.2
2016-Feb-06 01:33N 37°05' W 123°39'7 6.7
2016-Feb-06 00:32N 37°01' W 123°32'4 4.4
2016-Feb-05 23:32N 36°56' W 123°32'16 6.9
2016-Feb-05 21:10N 36°40' W 123°28'12 7.2
2016-Feb-05 19:33N 36°29' W 123°24'10 7.5
2016-Feb-05 18:15N 36°20' W 123°22'6 7.7
2016-Feb-05 17:26N 36°13' W 123°20'7 7.8
2016-Feb-05 16:30N 36°06' W 123°18'224 6.6
2016-Feb-04 06:33N 33°21' W 120°14'1514.8
2016-Feb-04 05:31N 33°30' W 119°59'7014.1
2016-Feb-04 00:33N 33°38' W 118°36'1414.0
2016-Feb-03 23:33N 33°38' W 118°19'8 8.4
2016-Feb-03 22:34N 33°43' W 118°11'2 1.7
2016-Feb-03 21:30N 33°44' W 118°13'0 0.1
2016-Feb-03 20:33N 33°44' W 118°13'0 0.1
2016-Feb-03 19:33N 33°43' W 118°13'0 0.1
2016-Feb-03 18:30N 33°43' W 118°13'0 0.1
2016-Feb-03 17:33N 33°43' W 118°13'0 0.0
2016-Feb-03 16:21N 33°43' W 118°13'0 0.1
2016-Feb-03 15:33N 33°43' W 118°13'0 0.0
2016-Feb-03 14:33N 33°43' W 118°13'0 0.0
2016-Feb-03 13:33N 33°43' W 118°13'0 0.0
2016-Feb-03 12:33N 33°43' W 118°13'0 0.0
2016-Feb-03 11:33N 33°43' W 118°13'0 0.1
2016-Feb-03 10:33N 33°43' W 118°13'0 0.0
2016-Feb-03 09:24N 33°43' W 118°13'0 0.0
2016-Feb-03 08:15N 33°43' W 118°13'0 0.1
2016-Feb-03 07:21N 33°43' W 118°13'0 0.1
2016-Feb-03 06:33N 33°43' W 118°13'0 0.2
2016-Feb-03 05:33N 33°43' W 118°13'0 0.1
2016-Feb-03 04:33N 33°43' W 118°13'4 3.5
2016-Feb-03 03:33N 33°45' W 118°17'0 0.1
2016-Feb-03 02:33N 33°45' W 118°17'0 0.0
2016-Feb-02 22:06N 33°45' W 118°17'0 0.0
2016-Feb-02 20:18N 33°45' W 118°17'0 0.0
2016-Feb-02 17:15N 33°45' W 118°17'0 0.0
2016-Feb-02 16:33N 33°45' W 118°17'0 0.0
2016-Feb-02 13:30N 33°45' W 118°17'0 0.0
2016-Feb-02 10:15N 33°45' W 118°17'0 0.0
2016-Feb-02 09:30N 33°45' W 118°17'0 0.0
2016-Feb-02 08:06N 33°45' W 118°17'0 0.0
2016-Feb-02 02:34N 33°45' W 118°17'3 3.1
2016-Feb-02 01:33N 33°43' W 118°14'0 0.5
2016-Feb-02 00:32N 33°44' W 118°14'0 0.1
2016-Feb-01 23:32N 33°44' W 118°13'0 0.1
2016-Feb-01 22:29N 33°44' W 118°14'0 0.0
2016-Feb-01 21:32N 33°44' W 118°14'0 0.0
2016-Feb-01 20:23N 33°44' W 118°14'0 0.0
2016-Feb-01 19:32N 33°44' W 118°14'0 0.0
2016-Feb-01 18:32N 33°44' W 118°14'0 0.0
2016-Feb-01 17:32N 33°44' W 118°14'0 0.0
2016-Feb-01 16:26N 33°44' W 118°14'0 0.0
2016-Feb-01 15:29N 33°44' W 118°14'0 0.1
2016-Feb-01 14:32N 33°44' W 118°13'0 0.0
2016-Feb-01 13:32N 33°44' W 118°13'0 0.1
2016-Feb-01 12:32N 33°44' W 118°14'0 0.1
2016-Feb-01 11:32N 33°44' W 118°13'0 0.0
2016-Feb-01 10:26N 33°44' W 118°13'0 0.0
2016-Feb-01 09:32N 33°44' W 118°13'0 0.0
2016-Feb-01 08:32N 33°44' W 118°13'0 0.0
2016-Feb-01 07:29N 33°44' W 118°13'0 0.0
2016-Feb-01 06:32N 33°44' W 118°13'0 0.0
2016-Feb-01 05:32N 33°44' W 118°13'0 0.0
2016-Feb-01 04:32N 33°44' W 118°13'0 0.0
2016-Feb-01 03:32N 33°44' W 118°13'0 0.0
2016-Feb-01 02:29N 33°44' W 118°13'0 0.0
2016-Feb-01 01:32N 33°44' W 118°13'4 4.1
2016-Feb-01 00:32N 33°41' W 118°10'1110.2
2016-Jan-31 23:27N 33°30' W 118°07'1513.2
2016-Jan-31 22:18N 33°16' W 117°60'1013.8
2016-Jan-31 21:33N 33°07' W 117°53'1515.1
2016-Jan-31 20:33N 32°55' W 117°43'1514.9
2016-Jan-31 19:33N 32°43' W 117°33'1312.6
2016-Jan-31 18:33N 32°37' W 117°20'6 6.2
2016-Jan-31 17:33N 32°40' W 117°14'2 1.6
2016-Jan-31 16:33N 32°42' W 117°14'0 0.0
2016-Jan-31 15:33N 32°42' W 117°14'0 0.0
2016-Jan-31 14:33N 32°42' W 117°14'0 0.0
2016-Jan-31 13:18N 32°42' W 117°14'0 0.0
2016-Jan-31 12:27N 32°42' W 117°14'0 0.0
2016-Jan-31 11:33N 32°42' W 117°14'0 0.0
2016-Jan-31 10:30N 32°42' W 117°14'0 0.0
2016-Jan-31 09:33N 32°42' W 117°14'0 0.0
2016-Jan-31 08:33N 32°42' W 117°14'0 0.0
2016-Jan-31 07:33N 32°42' W 117°14'0 0.0
2016-Jan-31 06:33N 32°42' W 117°14'0 0.0
2016-Jan-31 05:27N 32°42' W 117°14'0 0.0
2016-Jan-31 04:27N 32°42' W 117°14'0 0.0
2016-Jan-31 03:27N 32°42' W 117°14'0 0.0
2016-Jan-31 02:33N 32°42' W 117°14'0 0.0
2016-Jan-31 01:30N 32°42' W 117°14'0 0.0
2016-Jan-31 00:21N 32°42' W 117°14'0 0.0
2016-Jan-30 23:21N 32°42' W 117°14'0 0.1
2016-Jan-30 22:33N 32°42' W 117°14'0 0.0
2016-Jan-30 20:33N 32°42' W 117°14'0 0.0
2016-Jan-30 19:33N 32°42' W 117°14'0 0.0
2016-Jan-30 18:24N 32°42' W 117°14'  
Track history (hours):
 
Tides and Currents Weather Stations Pressure Air Temp Water Temp Dewpoint Dewpoint Depression Visibility Wind Speed Wind Dir Waves Ship Positions

Empire State

Owner: Crowley Petroleum Services, Jacksonville, FL. More information available from US FCC via Universal Licensing System and Coast Guard Vessel Documentation Center.

Last reported at 2016-Feb-09 17:34 UTC. Time now 2016-Feb-09 18:00 UTC.
Position N 37°53' W 124°02'.

Length 183 m; draft 10.5 m.

Type: Military. MMSI: 367353080.

Date/timePositionNaut miles runAvg speedWind from/ knotsBaromVisibWave heightAir tempDewpointWater temp
2016-Feb-09 17:34N 37°53' W 124°02'1414.4
2016-Feb-09 16:33N 37°43' W 123°49'1414.3
2016-Feb-09 15:33N 37°33' W 123°35'1414.3
2016-Feb-09 14:34N 37°24' W 123°22'1313.1
2016-Feb-09 13:33N 37°32' W 123°08'1110.8
2016-Feb-09 12:33N 37°38' W 122°57'1010.3
2016-Feb-09 11:33N 37°43' W 122°46'1110.9
2016-Feb-09 10:34N 37°48' W 122°33'9 8.8
2016-Feb-09 09:33N 37°54' W 122°27'8 8.3
2016-Feb-09 08:33N 38°02' W 122°22'6 6.1
2016-Feb-09 07:33N 38°04' W 122°15'0 0.1
2016-Feb-09 06:30N 38°04' W 122°15'0 0.0
2016-Feb-09 05:30N 38°04' W 122°15'0 0.0
2016-Feb-09 04:30N 38°04' W 122°15'0 0.0
2016-Feb-09 03:30N 38°04' W 122°15'0 0.0
2016-Feb-09 02:30N 38°04' W 122°15'0 0.0
2016-Feb-08 18:24N 38°04' W 122°15'0 0.0
2016-Feb-08 17:30N 38°04' W 122°15'0 0.0
2016-Feb-08 16:30N 38°04' W 122°15'0 0.0
2016-Feb-08 15:30N 38°04' W 122°15'0 0.0
2016-Feb-08 14:30N 38°04' W 122°15'0 0.0
2016-Feb-08 13:30N 38°04' W 122°15'0 0.0
2016-Feb-08 12:30N 38°04' W 122°15'0 0.0
2016-Feb-08 11:30N 38°04' W 122°15'0 0.0
2016-Feb-08 10:24N 38°04' W 122°15'0 0.0
2016-Feb-08 09:24N 38°04' W 122°15'0 0.0
2016-Feb-08 08:18N 38°04' W 122°15'0 0.0
2016-Feb-08 07:18N 38°04' W 122°15'0 0.0
2016-Feb-08 06:30N 38°04' W 122°15'0 0.0
2016-Feb-08 05:30N 38°04' W 122°15'0 0.0
2016-Feb-08 04:18N 38°04' W 122°15'0 0.0
2016-Feb-08 03:24N 38°04' W 122°15'0 0.0
2016-Feb-07 20:30N 38°04' W 122°15'0 0.0
2016-Feb-07 19:30N 38°04' W 122°15'0 0.0
2016-Feb-07 18:30N 38°04' W 122°15'0 0.0
2016-Feb-07 17:30N 38°04' W 122°15'0 0.0
2016-Feb-07 16:30N 38°04' W 122°15'0 0.0
2016-Feb-07 15:30N 38°04' W 122°15'0 0.0
2016-Feb-07 14:30N 38°04' W 122°15'0 0.0
2016-Feb-07 13:24N 38°04' W 122°15'0 0.0
2016-Feb-07 12:30N 38°04' W 122°15'0 0.0
2016-Feb-07 11:30N 38°04' W 122°15'0 0.0
2016-Feb-07 09:24N 38°04' W 122°15'0 0.0
2016-Feb-06 11:30N 38°04' W 122°15'4 4.4
2016-Feb-06 10:33N 38°03' W 122°20'1111.3
2016-Feb-06 09:33N 37°53' W 122°25'8 7.6
2016-Feb-06 08:33N 37°47' W 122°32'1111.4
2016-Feb-06 07:33N 37°42' W 122°45'1110.6
2016-Feb-06 06:33N 37°36' W 122°56'1010.4
2016-Feb-06 05:33N 37°29' W 123°06'10 9.9
2016-Feb-06 04:33N 37°23' W 123°15'1010.0
2016-Feb-06 03:33N 37°16' W 123°25'1010.2
2016-Feb-06 02:33N 37°10' W 123°35'6 6.2
2016-Feb-06 01:33N 37°05' W 123°39'7 6.7
2016-Feb-06 00:32N 37°01' W 123°32'4 4.4
2016-Feb-05 23:32N 36°56' W 123°32'16 6.9
2016-Feb-05 21:10N 36°40' W 123°28'12 7.2
2016-Feb-05 19:33N 36°29' W 123°24'10 7.5
2016-Feb-05 18:15N 36°20' W 123°22'6 7.7
2016-Feb-05 17:26N 36°13' W 123°20'7 7.8
2016-Feb-05 16:30N 36°06' W 123°18'224 6.6
2016-Feb-04 06:33N 33°21' W 120°14'1514.8
2016-Feb-04 05:31N 33°30' W 119°59'7014.1
2016-Feb-04 00:33N 33°38' W 118°36'1414.0
2016-Feb-03 23:33N 33°38' W 118°19'8 8.4
2016-Feb-03 22:34N 33°43' W 118°11'2 1.7
2016-Feb-03 21:30N 33°44' W 118°13'0 0.1
2016-Feb-03 20:33N 33°44' W 118°13'0 0.1
2016-Feb-03 19:33N 33°43' W 118°13'0 0.1
2016-Feb-03 18:30N 33°43' W 118°13'0 0.1
2016-Feb-03 17:33N 33°43' W 118°13'0 0.0
2016-Feb-03 16:21N 33°43' W 118°13'0 0.1
2016-Feb-03 15:33N 33°43' W 118°13'0 0.0
2016-Feb-03 14:33N 33°43' W 118°13'0 0.0
2016-Feb-03 13:33N 33°43' W 118°13'0 0.0
2016-Feb-03 12:33N 33°43' W 118°13'0 0.0
2016-Feb-03 11:33N 33°43' W 118°13'0 0.1
2016-Feb-03 10:33N 33°43' W 118°13'0 0.0
2016-Feb-03 09:24N 33°43' W 118°13'0 0.0
2016-Feb-03 08:15N 33°43' W 118°13'0 0.1
2016-Feb-03 07:21N 33°43' W 118°13'0 0.1
2016-Feb-03 06:33N 33°43' W 118°13'0 0.2
2016-Feb-03 05:33N 33°43' W 118°13'0 0.1
2016-Feb-03 04:33N 33°43' W 118°13'4 3.5
2016-Feb-03 03:33N 33°45' W 118°17'0 0.1
2016-Feb-03 02:33N 33°45' W 118°17'0 0.0
2016-Feb-02 22:06N 33°45' W 118°17'0 0.0
2016-Feb-02 20:18N 33°45' W 118°17'0 0.0
2016-Feb-02 17:15N 33°45' W 118°17'0 0.0
2016-Feb-02 16:33N 33°45' W 118°17'0 0.0
2016-Feb-02 13:30N 33°45' W 118°17'0 0.0
2016-Feb-02 10:15N 33°45' W 118°17'0 0.0
2016-Feb-02 09:30N 33°45' W 118°17'0 0.0
2016-Feb-02 08:06N 33°45' W 118°17'0 0.0
2016-Feb-02 02:34N 33°45' W 118°17'3 3.1
2016-Feb-02 01:33N 33°43' W 118°14'0 0.5
2016-Feb-02 00:32N 33°44' W 118°14'0 0.1
2016-Feb-01 23:32N 33°44' W 118°13'0 0.1
2016-Feb-01 22:29N 33°44' W 118°14'0 0.0
2016-Feb-01 21:32N 33°44' W 118°14'0 0.0
2016-Feb-01 20:23N 33°44' W 118°14'0 0.0
2016-Feb-01 19:32N 33°44' W 118°14'0 0.0
2016-Feb-01 18:32N 33°44' W 118°14'0 0.0
2016-Feb-01 17:32N 33°44' W 118°14'0 0.0
2016-Feb-01 16:26N 33°44' W 118°14'0 0.0
2016-Feb-01 15:29N 33°44' W 118°14'0 0.1
2016-Feb-01 14:32N 33°44' W 118°13'0 0.0
2016-Feb-01 13:32N 33°44' W 118°13'0 0.1
2016-Feb-01 12:32N 33°44' W 118°14'0 0.1
2016-Feb-01 11:32N 33°44' W 118°13'0 0.0
2016-Feb-01 10:26N 33°44' W 118°13'0 0.0
2016-Feb-01 09:32N 33°44' W 118°13'0 0.0
2016-Feb-01 08:32N 33°44' W 118°13'0 0.0
2016-Feb-01 07:29N 33°44' W 118°13'0 0.0
2016-Feb-01 06:32N 33°44' W 118°13'0 0.0
2016-Feb-01 05:32N 33°44' W 118°13'0 0.0
2016-Feb-01 04:32N 33°44' W 118°13'0 0.0
2016-Feb-01 03:32N 33°44' W 118°13'0 0.0
2016-Feb-01 02:29N 33°44' W 118°13'0 0.0
2016-Feb-01 01:32N 33°44' W 118°13'4 4.1
2016-Feb-01 00:32N 33°41' W 118°10'1110.2
2016-Jan-31 23:27N 33°30' W 118°07'1513.2
2016-Jan-31 22:18N 33°16' W 117°60'1013.8
2016-Jan-31 21:33N 33°07' W 117°53'1515.1
2016-Jan-31 20:33N 32°55' W 117°43'1514.9
2016-Jan-31 19:33N 32°43' W 117°33'1312.6
2016-Jan-31 18:33N 32°37' W 117°20'6 6.2
2016-Jan-31 17:33N 32°40' W 117°14'2 1.6
2016-Jan-31 16:33N 32°42' W 117°14'0 0.0
2016-Jan-31 15:33N 32°42' W 117°14'0 0.0
2016-Jan-31 14:33N 32°42' W 117°14'0 0.0
2016-Jan-31 13:18N 32°42' W 117°14'0 0.0
2016-Jan-31 12:27N 32°42' W 117°14'0 0.0
2016-Jan-31 11:33N 32°42' W 117°14'0 0.0
2016-Jan-31 10:30N 32°42' W 117°14'0 0.0
2016-Jan-31 09:33N 32°42' W 117°14'0 0.0
2016-Jan-31 08:33N 32°42' W 117°14'0 0.0
2016-Jan-31 07:33N 32°42' W 117°14'0 0.0
2016-Jan-31 06:33N 32°42' W 117°14'0 0.0
2016-Jan-31 05:27N 32°42' W 117°14'0 0.0
2016-Jan-31 04:27N 32°42' W 117°14'0 0.0
2016-Jan-31 03:27N 32°42' W 117°14'0 0.0
2016-Jan-31 02:33N 32°42' W 117°14'0 0.0
2016-Jan-31 01:30N 32°42' W 117°14'0 0.0
2016-Jan-31 00:21N 32°42' W 117°14'0 0.0
2016-Jan-30 23:21N 32°42' W 117°14'0 0.1
2016-Jan-30 22:33N 32°42' W 117°14'0 0.0
2016-Jan-30 20:33N 32°42' W 117°14'0 0.0
2016-Jan-30 19:33N 32°42' W 117°14'0 0.0
2016-Jan-30 18:24N 32°42' W 117°14'  

Dump ship's entire track history